createdAt,value
2018-12-02T00:00:29.220Z,5.30
2018-12-02T00:01:34.808Z,4.80
2018-12-02T00:02:40.289Z,4.80
2018-12-02T00:03:45.814Z,5.40
2018-12-02T00:04:51.348Z,4.40
2018-12-02T00:05:56.889Z,4.80
2018-12-02T00:07:02.423Z,5.30
2018-12-02T00:08:07.955Z,5.10
2018-12-02T00:09:13.492Z,5.20
2018-12-02T00:10:19.028Z,5.10
2018-12-02T00:11:24.554Z,5.30
2018-12-02T00:12:30.095Z,5.50
2018-12-02T00:13:35.630Z,5.50
2018-12-02T00:14:41.161Z,5.20
2018-12-02T00:15:46.695Z,5.80
2018-12-02T00:16:52.231Z,5.10
2018-12-02T00:17:57.761Z,5.30
2018-12-02T00:19:03.294Z,5.70
2018-12-02T00:20:08.832Z,4.90
2018-12-02T00:21:14.417Z,4.90
2018-12-02T00:22:19.894Z,5.60
2018-12-02T00:23:25.443Z,4.70
2018-12-02T00:24:30.965Z,5.30
2018-12-02T00:25:36.501Z,5.00
2018-12-02T00:26:42.034Z,5.00
2018-12-02T00:27:47.572Z,4.90
2018-12-02T00:28:53.104Z,4.50
2018-12-02T00:29:58.639Z,5.30
2018-12-02T00:31:04.169Z,4.60
2018-12-02T00:32:09.702Z,5.30
2018-12-02T00:33:15.240Z,4.70
2018-12-02T00:34:20.777Z,4.40
2018-12-02T00:35:26.307Z,5.40
2018-12-02T00:36:31.843Z,5.00
2018-12-02T00:37:37.382Z,4.90
2018-12-02T00:38:42.909Z,4.90
2018-12-02T00:39:48.439Z,5.10
2018-12-02T00:40:53.981Z,5.00
2018-12-02T00:41:59.513Z,4.80
2018-12-02T00:43:05.045Z,4.80
2018-12-02T00:44:10.579Z,5.00
2018-12-02T00:45:16.115Z,5.40
2018-12-02T00:46:21.643Z,5.50
2018-12-02T00:47:27.185Z,4.90
2018-12-02T00:48:32.712Z,5.00
2018-12-02T00:49:38.246Z,4.40
2018-12-02T00:50:43.789Z,5.10
2018-12-02T00:51:49.316Z,4.60
2018-12-02T00:52:54.851Z,4.80
2018-12-02T00:54:00.380Z,5.30
2018-12-02T00:55:05.925Z,4.90
2018-12-02T00:56:11.461Z,5.00
2018-12-02T00:57:16.989Z,5.30
2018-12-02T00:58:22.522Z,5.20
2018-12-02T00:59:28.068Z,5.10
2018-12-02T01:00:33.587Z,5.30
2018-12-02T01:01:39.126Z,5.20
2018-12-02T01:02:44.657Z,5.00
2018-12-02T01:03:50.195Z,4.60
2018-12-02T01:04:55.724Z,5.00
2018-12-02T01:06:01.264Z,5.30
2018-12-02T01:07:06.795Z,4.30
2018-12-02T01:08:12.339Z,5.10
2018-12-02T01:09:17.858Z,4.70
2018-12-02T01:10:23.394Z,5.40
2018-12-02T01:11:28.925Z,5.50
2018-12-02T01:12:34.463Z,4.90
2018-12-02T01:13:40.002Z,5.20
2018-12-02T01:14:45.538Z,5.50
2018-12-02T01:15:51.067Z,6.10
2018-12-02T01:16:56.600Z,5.50
2018-12-02T01:18:02.132Z,5.60
2018-12-02T01:19:07.669Z,5.60
2018-12-02T01:20:13.200Z,5.40
2018-12-02T01:21:18.739Z,4.90
2018-12-02T01:22:24.269Z,5.00
2018-12-02T01:23:29.811Z,4.70
2018-12-02T01:24:35.338Z,5.10
2018-12-02T01:25:40.870Z,4.80
2018-12-02T01:26:46.402Z,5.20
2018-12-02T01:27:51.943Z,5.20
2018-12-02T01:28:57.472Z,5.00
2018-12-02T01:30:03.003Z,5.30
2018-12-02T01:31:08.549Z,5.70
2018-12-02T01:32:14.079Z,5.50
2018-12-02T01:33:19.616Z,5.10
2018-12-02T01:34:25.143Z,5.10
2018-12-02T01:35:30.678Z,5.60
2018-12-02T01:36:36.214Z,5.40
2018-12-02T01:37:41.752Z,5.60
2018-12-02T01:38:47.283Z,5.80
2018-12-02T01:39:52.814Z,5.50
2018-12-02T01:40:58.349Z,5.20
2018-12-02T01:42:03.883Z,5.20
2018-12-02T01:43:09.415Z,5.70
2018-12-02T01:44:14.949Z,5.00
2018-12-02T01:45:20.487Z,5.40
2018-12-02T01:46:26.017Z,5.00
2018-12-02T01:47:31.561Z,4.90
2018-12-02T01:48:37.086Z,5.60
2018-12-02T01:49:42.622Z,5.70
2018-12-02T01:50:48.159Z,5.60
2018-12-02T01:51:53.683Z,5.60
2018-12-02T01:52:59.224Z,5.60
2018-12-02T01:54:04.758Z,5.40
2018-12-02T01:55:10.289Z,5.20
2018-12-02T01:56:15.823Z,5.40
2018-12-02T01:57:21.361Z,5.40
2018-12-02T01:58:26.897Z,5.40
2018-12-02T01:59:32.428Z,5.10
2018-12-02T02:00:37.968Z,4.70
2018-12-02T02:01:43.491Z,4.80
2018-12-02T02:02:49.034Z,5.40
2018-12-02T02:03:54.560Z,5.70
2018-12-02T02:05:00.108Z,5.20
2018-12-02T02:06:05.630Z,5.60
2018-12-02T02:07:11.166Z,5.70
2018-12-02T02:08:16.698Z,4.90
2018-12-02T02:09:22.236Z,5.40
2018-12-02T02:10:27.761Z,4.60
2018-12-02T02:11:33.305Z,5.00
2018-12-02T02:12:38.834Z,4.70
2018-12-02T02:13:44.366Z,4.90
2018-12-02T02:14:49.901Z,5.70
2018-12-02T02:15:55.438Z,5.10
2018-12-02T02:17:00.972Z,5.10
2018-12-02T02:18:06.507Z,5.20
2018-12-02T02:19:12.043Z,5.40
2018-12-02T02:20:17.593Z,5.10
2018-12-02T02:21:23.112Z,5.20
2018-12-02T02:22:28.642Z,4.80
2018-12-02T02:23:34.171Z,4.80
2018-12-02T02:24:39.710Z,5.20
2018-12-02T02:25:45.241Z,4.60
2018-12-02T02:26:50.779Z,5.20
2018-12-02T02:27:56.313Z,4.90
2018-12-02T02:29:01.850Z,5.00
2018-12-02T02:30:07.386Z,5.00
2018-12-02T02:31:12.915Z,5.00
2018-12-02T02:32:18.452Z,4.90
2018-12-02T02:33:23.988Z,5.10
2018-12-02T02:34:29.519Z,4.90
2018-12-02T02:35:35.050Z,4.90
2018-12-02T02:36:40.585Z,4.40
2018-12-02T02:37:46.124Z,4.30
2018-12-02T02:38:51.656Z,4.60
2018-12-02T02:39:57.196Z,4.30
2018-12-02T02:41:02.719Z,4.80
2018-12-02T02:42:08.258Z,5.30
2018-12-02T02:43:13.790Z,4.70
2018-12-02T02:44:19.324Z,4.40
2018-12-02T02:45:24.867Z,5.10
2018-12-02T02:46:30.391Z,4.80
2018-12-02T02:47:35.922Z,4.30
2018-12-02T02:48:41.455Z,4.60
2018-12-02T02:49:46.993Z,4.30
2018-12-02T02:50:52.532Z,4.40
2018-12-02T02:51:58.070Z,3.90
2018-12-02T02:53:03.598Z,3.90
2018-12-02T02:54:09.133Z,3.90
2018-12-02T02:55:14.668Z,4.00
2018-12-02T02:56:20.205Z,4.90
2018-12-02T02:57:25.733Z,4.50
2018-12-02T02:58:31.271Z,4.40
2018-12-02T02:59:36.801Z,3.90
2018-12-02T03:00:42.337Z,3.90
2018-12-02T03:01:47.873Z,4.20
2018-12-02T03:02:53.403Z,4.30
2018-12-02T03:03:58.944Z,3.70
2018-12-02T03:05:04.470Z,4.00
2018-12-02T03:06:10.008Z,3.30
2018-12-02T03:07:15.542Z,3.70
2018-12-02T03:08:21.077Z,3.80
2018-12-02T03:09:26.611Z,3.90
2018-12-02T03:10:32.140Z,3.60
2018-12-02T03:11:37.678Z,3.60
2018-12-02T03:12:43.220Z,3.80
2018-12-02T03:13:48.744Z,4.40
2018-12-02T03:14:54.284Z,4.50
2018-12-02T03:15:59.817Z,4.00
2018-12-02T03:17:05.354Z,3.80
2018-12-02T03:18:10.891Z,3.80
2018-12-02T03:19:16.414Z,3.70
2018-12-02T03:20:21.960Z,4.20
2018-12-02T03:21:27.486Z,3.80
2018-12-02T03:22:33.024Z,4.00
2018-12-02T03:23:38.556Z,3.70
2018-12-02T03:24:44.090Z,3.80
2018-12-02T03:25:49.617Z,3.90
2018-12-02T03:26:55.159Z,3.90
2018-12-02T03:28:00.696Z,3.40
2018-12-02T03:29:06.229Z,3.70
2018-12-02T03:30:11.758Z,3.70
2018-12-02T03:31:17.298Z,4.30
2018-12-02T03:32:22.850Z,3.90
2018-12-02T03:33:28.364Z,3.70
2018-12-02T03:34:33.903Z,3.60
2018-12-02T03:35:39.434Z,3.70
2018-12-02T03:36:44.967Z,4.00
2018-12-02T03:37:50.500Z,3.70
2018-12-02T03:38:56.039Z,4.10
2018-12-02T03:40:01.568Z,3.60
2018-12-02T03:41:07.100Z,3.50
2018-12-02T03:42:12.643Z,3.90
2018-12-02T03:43:18.176Z,3.50
2018-12-02T03:44:23.711Z,3.90
2018-12-02T03:45:29.245Z,3.20
2018-12-02T03:46:34.773Z,4.00
2018-12-02T03:47:40.312Z,3.50
2018-12-02T03:48:45.848Z,3.30
2018-12-02T03:49:51.376Z,3.20
2018-12-02T03:50:56.912Z,4.20
2018-12-02T03:52:02.491Z,4.00
2018-12-02T03:53:07.982Z,3.60
2018-12-02T03:54:13.513Z,3.30
2018-12-02T03:55:19.054Z,3.20
2018-12-02T03:56:24.584Z,3.50
2018-12-02T03:57:30.123Z,3.40
2018-12-02T03:58:35.655Z,3.50
2018-12-02T03:59:41.187Z,3.70
2018-12-02T04:00:46.727Z,3.10
2018-12-02T04:01:52.256Z,4.00
2018-12-02T04:02:57.795Z,2.80
2018-12-02T04:04:03.327Z,3.80
2018-12-02T04:05:08.862Z,3.60
2018-12-02T04:06:14.391Z,3.20
2018-12-02T04:07:19.929Z,3.60
2018-12-02T04:08:25.463Z,3.70
2018-12-02T04:09:30.998Z,3.40
2018-12-02T04:10:36.530Z,3.60
2018-12-02T04:11:42.071Z,3.80
2018-12-02T04:12:47.601Z,3.60
2018-12-02T04:13:53.133Z,3.40
2018-12-02T04:14:58.674Z,3.70
2018-12-02T04:16:04.201Z,3.40
2018-12-02T04:17:09.739Z,3.40
2018-12-02T04:18:15.275Z,3.60
2018-12-02T04:19:20.803Z,3.40
2018-12-02T04:20:26.337Z,3.70
2018-12-02T04:21:31.871Z,3.10
2018-12-02T04:22:37.414Z,3.40
2018-12-02T04:23:42.943Z,4.20
2018-12-02T04:24:48.479Z,3.80
2018-12-02T04:25:54.065Z,3.50
2018-12-02T04:26:59.552Z,3.70
2018-12-02T04:28:05.086Z,3.40
2018-12-02T04:29:10.626Z,3.10
2018-12-02T04:30:16.153Z,3.10
2018-12-02T04:31:21.687Z,3.30
2018-12-02T04:32:27.225Z,4.20
2018-12-02T04:33:32.756Z,3.10
2018-12-02T04:34:38.296Z,3.40
2018-12-02T04:35:43.827Z,3.30
2018-12-02T04:36:49.357Z,3.00
2018-12-02T04:37:54.897Z,3.40
2018-12-02T04:39:00.420Z,3.30
2018-12-02T04:40:05.964Z,3.00
2018-12-02T04:41:11.497Z,3.20
2018-12-02T04:42:17.026Z,3.10
2018-12-02T04:43:22.561Z,3.50
2018-12-02T04:44:28.101Z,3.40
2018-12-02T04:45:33.665Z,3.40
2018-12-02T04:46:39.163Z,3.10
2018-12-02T04:47:44.707Z,3.50
2018-12-02T04:48:50.237Z,3.40
2018-12-02T04:49:55.767Z,3.30
2018-12-02T04:51:01.309Z,2.70
2018-12-02T04:52:06.840Z,3.10
2018-12-02T04:53:12.374Z,3.40
2018-12-02T04:54:17.905Z,3.00
2018-12-02T04:55:23.445Z,3.00
2018-12-02T04:56:28.973Z,3.10
2018-12-02T04:57:34.511Z,3.20
2018-12-02T04:58:40.044Z,3.10
2018-12-02T04:59:45.585Z,3.30
2018-12-02T05:00:51.110Z,3.80
2018-12-02T05:01:56.652Z,3.40
2018-12-02T05:03:02.179Z,3.40
2018-12-02T05:04:07.721Z,3.90
2018-12-02T05:05:13.255Z,3.80
2018-12-02T05:06:18.788Z,4.20
2018-12-02T05:07:24.323Z,6.90
2018-12-02T05:08:29.852Z,6.90
2018-12-02T05:09:35.388Z,3.60
2018-12-02T05:10:40.920Z,3.70
2018-12-02T05:11:46.461Z,3.50
2018-12-02T05:12:51.993Z,3.30
2018-12-02T05:13:57.524Z,3.30
2018-12-02T05:15:03.062Z,3.70
2018-12-02T05:16:08.596Z,4.00
2018-12-02T05:17:14.129Z,3.80
2018-12-02T05:18:19.668Z,3.70
2018-12-02T05:19:25.196Z,3.30
2018-12-02T05:20:30.735Z,3.00
2018-12-02T05:21:36.267Z,2.80
2018-12-02T05:22:41.809Z,3.00
2018-12-02T05:23:47.333Z,3.60
2018-12-02T05:24:52.877Z,3.00
2018-12-02T05:25:58.402Z,3.30
2018-12-02T05:27:03.943Z,3.00
2018-12-02T05:28:09.476Z,3.00
2018-12-02T05:29:15.007Z,3.40
2018-12-02T05:30:20.541Z,3.10
2018-12-02T05:31:26.081Z,3.40
2018-12-02T05:32:31.619Z,3.30
2018-12-02T05:33:37.147Z,3.00
2018-12-02T05:34:42.681Z,3.20
2018-12-02T05:35:48.217Z,3.10
2018-12-02T05:36:53.751Z,2.50
2018-12-02T05:37:59.288Z,2.70
2018-12-02T05:39:04.860Z,7.50
2018-12-02T05:40:10.353Z,5.80
2018-12-02T05:41:15.892Z,3.30
2018-12-02T05:42:21.429Z,3.00
2018-12-02T05:43:26.957Z,3.00
2018-12-02T05:44:32.496Z,2.70
2018-12-02T05:45:38.025Z,2.90
2018-12-02T05:46:43.557Z,4.20
2018-12-02T05:47:49.097Z,6.00
2018-12-02T05:48:54.627Z,9.90
2018-12-02T05:50:00.163Z,8.80
2018-12-02T05:51:05.708Z,10.30
2018-12-02T05:52:11.233Z,5.20
2018-12-02T05:53:16.768Z,3.00
2018-12-02T05:54:22.296Z,3.60
2018-12-02T05:55:27.834Z,3.60
2018-12-02T05:56:33.369Z,3.10
2018-12-02T05:57:38.906Z,3.20
2018-12-02T05:58:44.444Z,3.00
2018-12-02T05:59:49.968Z,2.70
2018-12-02T06:00:55.511Z,2.20
2018-12-02T06:02:01.041Z,2.90
2018-12-02T06:03:06.579Z,2.80
2018-12-02T06:04:12.119Z,2.50
2018-12-02T06:05:17.645Z,2.50
2018-12-02T06:06:24.196Z,2.30
2018-12-02T06:07:28.712Z,2.60
2018-12-02T06:08:34.253Z,2.50
2018-12-02T06:09:39.778Z,2.70
2018-12-02T06:10:45.317Z,2.50
2018-12-02T06:11:50.853Z,2.50
2018-12-02T06:12:56.390Z,2.80
2018-12-02T06:14:01.926Z,2.60
2018-12-02T06:15:07.463Z,2.40
2018-12-02T06:16:12.989Z,2.80
2018-12-02T06:17:18.527Z,2.70
2018-12-02T06:18:24.054Z,2.60
2018-12-02T06:19:29.598Z,2.80
2018-12-02T06:20:35.131Z,2.80
2018-12-02T06:21:40.663Z,2.20
2018-12-02T06:22:46.196Z,2.80
2018-12-02T06:23:51.733Z,2.60
2018-12-02T06:24:57.269Z,2.70
2018-12-02T06:26:02.805Z,2.90
2018-12-02T06:27:08.332Z,2.10
2018-12-02T06:28:13.872Z,2.40
2018-12-02T06:29:19.403Z,2.20
2018-12-02T06:30:24.943Z,2.60
2018-12-02T06:31:30.471Z,2.50
2018-12-02T06:32:36.008Z,2.60
2018-12-02T06:33:41.543Z,2.50
2018-12-02T06:34:47.084Z,3.00
2018-12-02T06:35:52.616Z,2.40
2018-12-02T06:36:58.148Z,3.20
2018-12-02T06:38:03.683Z,3.20
2018-12-02T06:39:09.218Z,3.00
2018-12-02T06:40:14.756Z,3.10
2018-12-02T06:41:20.286Z,3.10
2018-12-02T06:42:25.816Z,3.30
2018-12-02T06:43:31.362Z,3.20
2018-12-02T06:44:36.894Z,3.30
2018-12-02T06:45:42.427Z,3.20
2018-12-02T06:46:47.956Z,3.90
2018-12-02T06:47:53.489Z,3.60
2018-12-02T06:48:59.033Z,3.40
2018-12-02T06:50:04.560Z,3.20
2018-12-02T06:51:10.094Z,3.70
2018-12-02T06:52:15.633Z,3.20
2018-12-02T06:53:21.168Z,3.30
2018-12-02T06:54:26.699Z,3.20
2018-12-02T06:55:32.233Z,3.40
2018-12-02T06:56:37.772Z,3.20
2018-12-02T06:57:43.301Z,3.60
2018-12-02T06:58:48.839Z,2.80
2018-12-02T06:59:54.379Z,3.70
2018-12-02T07:00:59.912Z,3.40
2018-12-02T07:02:05.438Z,3.80
2018-12-02T07:03:10.977Z,3.80
2018-12-02T07:04:16.512Z,3.80
2018-12-02T07:05:22.044Z,3.90
2018-12-02T07:06:27.582Z,4.00
2018-12-02T07:07:33.116Z,3.80
2018-12-02T07:08:38.645Z,3.90
2018-12-02T07:09:44.187Z,5.10
2018-12-02T07:10:49.719Z,3.80
2018-12-02T07:11:55.257Z,3.50
2018-12-02T07:13:00.790Z,3.40
2018-12-02T07:14:06.327Z,4.10
2018-12-02T07:15:11.858Z,4.70
2018-12-02T07:16:17.398Z,8.60
2018-12-02T07:17:22.927Z,9.40
2018-12-02T07:18:28.467Z,12.70
2018-12-02T07:19:33.991Z,8.20
2018-12-02T07:20:39.532Z,9.50
2018-12-02T07:21:45.063Z,9.80
2018-12-02T07:22:50.596Z,7.70
2018-12-02T07:23:56.135Z,6.00
2018-12-02T07:25:01.670Z,3.80
2018-12-02T07:26:07.204Z,3.70
2018-12-02T07:27:12.733Z,3.70
2018-12-02T07:28:18.270Z,4.40
2018-12-02T07:29:23.806Z,4.10
2018-12-02T07:30:29.345Z,3.50
2018-12-02T07:31:34.879Z,3.70
2018-12-02T07:32:40.408Z,3.20
2018-12-02T07:33:45.943Z,3.60
2018-12-02T07:34:51.479Z,3.20
2018-12-02T07:35:57.013Z,3.60
2018-12-02T07:37:02.548Z,3.30
2018-12-02T07:38:08.081Z,3.70
2018-12-02T07:39:13.622Z,4.10
2018-12-02T07:40:19.159Z,3.70
2018-12-02T07:41:24.688Z,2.90
2018-12-02T07:42:30.239Z,3.10
2018-12-02T07:43:35.754Z,3.90
2018-12-02T07:44:41.293Z,3.20
2018-12-02T07:45:46.833Z,3.10
2018-12-02T07:46:52.368Z,2.60
2018-12-02T07:47:57.898Z,3.20
2018-12-02T07:49:03.430Z,2.80
2018-12-02T07:50:08.966Z,3.00
2018-12-02T07:51:14.505Z,3.30
2018-12-02T07:52:20.040Z,3.20
2018-12-02T07:53:25.569Z,3.60
2018-12-02T07:54:31.101Z,2.70
2018-12-02T07:55:36.645Z,2.90
2018-12-02T07:56:42.182Z,3.50
2018-12-02T07:57:47.708Z,3.30
2018-12-02T07:58:53.248Z,3.50
2018-12-02T07:59:58.779Z,3.40
2018-12-02T08:01:04.312Z,2.40
2018-12-02T08:02:09.849Z,3.00
2018-12-02T08:03:15.387Z,2.60
2018-12-02T08:04:20.916Z,2.80
2018-12-02T08:05:26.455Z,3.10
2018-12-02T08:06:31.990Z,3.40
2018-12-02T08:07:37.525Z,3.20
2018-12-02T08:08:43.062Z,3.20
2018-12-02T08:09:48.591Z,3.50
2018-12-02T08:10:54.131Z,3.50
2018-12-02T08:11:59.661Z,3.00
2018-12-02T08:13:05.196Z,3.00
2018-12-02T08:14:10.730Z,4.20
2018-12-02T08:15:16.265Z,3.20
2018-12-02T08:16:21.799Z,3.20
2018-12-02T08:17:27.347Z,2.90
2018-12-02T08:18:32.870Z,3.00
2018-12-02T08:19:38.407Z,2.90
2018-12-02T08:20:43.939Z,2.60
2018-12-02T08:21:49.474Z,2.60
2018-12-02T08:22:55.011Z,2.80
2018-12-02T08:24:00.545Z,3.30
2018-12-02T08:25:06.078Z,2.10
2018-12-02T08:26:11.617Z,2.50
2018-12-02T08:27:17.146Z,2.70
2018-12-02T08:28:22.686Z,2.60
2018-12-02T08:29:28.219Z,2.60
2018-12-02T08:30:33.756Z,2.90
2018-12-02T08:31:39.292Z,3.50
2018-12-02T08:32:44.821Z,2.50
2018-12-02T08:33:50.358Z,2.80
2018-12-02T08:34:55.897Z,3.10
2018-12-02T08:36:01.427Z,2.80
2018-12-02T08:37:06.962Z,3.50
2018-12-02T08:38:12.497Z,3.70
2018-12-02T08:39:18.030Z,2.90
2018-12-02T08:40:23.571Z,3.30
2018-12-02T08:41:29.102Z,3.00
2018-12-02T08:42:34.636Z,3.50
2018-12-02T08:43:41.198Z,3.50
2018-12-02T08:44:45.706Z,3.20
2018-12-02T08:45:51.238Z,3.10
2018-12-02T08:46:56.779Z,2.80
2018-12-02T08:48:02.312Z,3.30
2018-12-02T08:49:07.846Z,2.70
2018-12-02T08:50:13.379Z,2.80
2018-12-02T08:51:18.914Z,3.20
2018-12-02T08:52:24.448Z,2.80
2018-12-02T08:53:29.982Z,3.00
2018-12-02T08:54:35.519Z,3.30
2018-12-02T08:55:41.055Z,2.90
2018-12-02T08:56:46.585Z,2.60
2018-12-02T08:57:52.122Z,2.70
2018-12-02T08:58:57.659Z,3.10
2018-12-02T09:00:03.194Z,3.10
2018-12-02T09:01:08.735Z,2.90
2018-12-02T09:02:14.267Z,3.00
2018-12-02T09:03:19.806Z,2.60
2018-12-02T09:04:25.335Z,2.80
2018-12-02T09:05:30.978Z,3.00
2018-12-02T09:06:36.403Z,2.40
2018-12-02T09:07:41.939Z,2.80
2018-12-02T09:08:47.473Z,2.70
2018-12-02T09:09:59.350Z,3.00
2018-12-02T09:10:58.540Z,2.40
2018-12-02T09:12:04.076Z,2.50
2018-12-02T09:13:09.612Z,2.80
2018-12-02T09:14:15.146Z,2.90
2018-12-02T09:15:20.731Z,2.80
2018-12-02T09:16:26.224Z,2.80
2018-12-02T09:17:31.752Z,2.80
2018-12-02T09:18:37.285Z,2.70
2018-12-02T09:19:42.819Z,2.80
2018-12-02T09:20:48.357Z,2.70
2018-12-02T09:21:53.890Z,2.80
2018-12-02T09:22:59.425Z,3.80
2018-12-02T09:24:04.960Z,3.10
2018-12-02T09:25:10.497Z,3.10
2018-12-02T09:26:16.029Z,3.40
2018-12-02T09:27:21.569Z,3.20
2018-12-02T09:28:27.098Z,3.20
2018-12-02T09:29:32.637Z,2.60
2018-12-02T09:30:38.176Z,3.10
2018-12-02T09:31:43.704Z,2.90
2018-12-02T09:32:49.241Z,2.70
2018-12-02T09:33:54.780Z,2.60
2018-12-02T09:35:00.315Z,3.00
2018-12-02T09:36:05.848Z,2.60
2018-12-02T09:37:11.434Z,2.60
2018-12-02T09:38:16.914Z,2.50
2018-12-02T09:39:22.453Z,3.00
2018-12-02T09:40:27.987Z,2.90
2018-12-02T09:41:33.519Z,2.70
2018-12-02T09:42:39.053Z,3.50
2018-12-02T09:43:44.592Z,2.60
2018-12-02T09:44:50.128Z,3.10
2018-12-02T09:45:55.665Z,3.00
2018-12-02T09:47:01.199Z,3.10
2018-12-02T09:48:06.737Z,3.30
2018-12-02T09:49:12.272Z,3.00
2018-12-02T09:50:17.800Z,2.80
2018-12-02T09:51:23.341Z,2.80
2018-12-02T09:52:28.872Z,3.40
2018-12-02T09:53:34.407Z,3.80
2018-12-02T09:54:39.942Z,3.20
2018-12-02T09:55:45.478Z,3.50
2018-12-02T09:56:51.020Z,2.90
2018-12-02T09:57:56.550Z,5.00
2018-12-02T09:59:02.082Z,3.50
2018-12-02T10:00:07.620Z,3.30
2018-12-02T10:01:13.155Z,3.30
2018-12-02T10:02:18.687Z,4.10
2018-12-02T10:03:24.221Z,3.20
2018-12-02T10:04:29.762Z,3.20
2018-12-02T10:05:35.295Z,3.00
2018-12-02T10:06:40.828Z,3.00
2018-12-02T10:07:46.363Z,3.60
2018-12-02T10:08:51.899Z,3.90
2018-12-02T10:09:58.272Z,4.20
2018-12-02T10:11:02.970Z,3.80
2018-12-02T10:12:08.501Z,3.90
2018-12-02T10:13:14.038Z,3.80
2018-12-02T10:14:19.570Z,4.40
2018-12-02T10:15:25.115Z,5.00
2018-12-02T10:16:30.647Z,3.60
2018-12-02T10:17:36.175Z,8.20
2018-12-02T10:18:41.710Z,16.30
2018-12-02T10:19:47.252Z,10.20
2018-12-02T10:20:52.788Z,7.90
2018-12-02T10:21:58.317Z,5.20
2018-12-02T10:23:03.855Z,4.00
2018-12-02T10:24:09.390Z,3.20
2018-12-02T10:25:14.926Z,3.50
2018-12-02T10:26:20.457Z,2.90
2018-12-02T10:27:25.992Z,3.40
2018-12-02T10:28:31.530Z,3.80
2018-12-02T10:29:37.068Z,3.90
2018-12-02T10:30:42.603Z,3.60
2018-12-02T10:31:48.141Z,4.70
2018-12-02T10:32:53.675Z,4.60
2018-12-02T10:33:59.206Z,3.80
2018-12-02T10:35:04.741Z,3.30
2018-12-02T10:36:10.278Z,3.70
2018-12-02T10:37:15.806Z,3.00
2018-12-02T10:38:21.341Z,3.40
2018-12-02T10:39:26.885Z,3.50
2018-12-02T10:40:32.800Z,3.70
2018-12-02T10:41:37.949Z,4.40
2018-12-02T10:42:43.483Z,3.90
2018-12-02T10:43:49.022Z,3.10
2018-12-02T10:44:54.563Z,4.30
2018-12-02T10:46:00.093Z,3.90
2018-12-02T10:47:05.625Z,3.40
2018-12-02T10:48:11.169Z,3.30
2018-12-02T10:49:16.695Z,3.70
2018-12-02T10:50:22.231Z,4.00
2018-12-02T10:51:27.769Z,3.20
2018-12-02T10:52:33.308Z,3.90
2018-12-02T10:53:38.834Z,3.30
2018-12-02T10:54:44.369Z,3.90
2018-12-02T10:55:49.911Z,3.50
2018-12-02T10:56:55.440Z,4.00
2018-12-02T10:58:00.980Z,3.10
2018-12-02T10:59:06.516Z,3.30
2018-12-02T11:00:12.044Z,4.00
2018-12-02T11:01:17.587Z,3.20
2018-12-02T11:02:23.115Z,3.60
2018-12-02T11:03:28.653Z,3.60
2018-12-02T11:04:34.189Z,3.20
2018-12-02T11:05:39.724Z,3.20
2018-12-02T11:06:45.261Z,3.20
2018-12-02T11:07:50.793Z,3.30
2018-12-02T11:08:56.325Z,3.20
2018-12-02T11:10:01.878Z,3.00
2018-12-02T11:11:07.401Z,3.30
2018-12-02T11:12:12.936Z,2.80
2018-12-02T11:13:18.471Z,3.00
2018-12-02T11:14:24.008Z,3.60
2018-12-02T11:15:29.540Z,3.30
2018-12-02T11:16:35.072Z,3.00
2018-12-02T11:17:40.611Z,2.90
2018-12-02T11:18:46.153Z,3.70
2018-12-02T11:19:51.681Z,3.20
2018-12-02T11:20:57.215Z,2.80
2018-12-02T11:22:02.755Z,3.30
2018-12-02T11:23:08.283Z,2.70
2018-12-02T11:24:13.822Z,2.80
2018-12-02T11:25:19.356Z,3.20
2018-12-02T11:26:24.887Z,2.60
2018-12-02T11:27:30.426Z,4.00
2018-12-02T11:28:35.964Z,5.00
2018-12-02T11:29:41.494Z,3.70
2018-12-02T11:30:47.033Z,4.00
2018-12-02T11:31:52.569Z,3.90
2018-12-02T11:32:58.117Z,3.30
2018-12-02T11:34:03.635Z,3.30
2018-12-02T11:35:09.185Z,3.50
2018-12-02T11:36:14.705Z,3.50
2018-12-02T11:37:20.244Z,3.50
2018-12-02T11:38:25.777Z,3.50
2018-12-02T11:39:31.313Z,3.10
2018-12-02T11:40:36.848Z,3.20
2018-12-02T11:41:42.384Z,3.30
2018-12-02T11:42:47.918Z,4.30
2018-12-02T11:43:53.452Z,3.60
2018-12-02T11:44:58.990Z,3.80
2018-12-02T11:46:04.523Z,2.90
2018-12-02T11:47:10.058Z,3.00
2018-12-02T11:48:15.590Z,2.90
2018-12-02T11:49:21.130Z,3.30
2018-12-02T11:50:26.661Z,2.90
2018-12-02T11:51:32.203Z,2.90
2018-12-02T11:52:37.734Z,3.00
2018-12-02T11:53:43.269Z,3.00
2018-12-02T11:54:48.804Z,2.50
2018-12-02T11:55:54.354Z,2.50
2018-12-02T11:56:59.873Z,2.70
2018-12-02T11:58:05.412Z,2.80
2018-12-02T11:59:10.951Z,2.70
2018-12-02T12:00:16.489Z,2.80
2018-12-02T12:01:22.020Z,2.60
2018-12-02T12:02:27.552Z,2.80
2018-12-02T12:03:33.090Z,3.10
2018-12-02T12:04:38.620Z,3.00
2018-12-02T12:05:44.167Z,2.70
2018-12-02T12:06:49.693Z,3.20
2018-12-02T12:07:55.233Z,3.30
2018-12-02T12:09:00.769Z,3.00
2018-12-02T12:10:06.298Z,2.80
2018-12-02T12:11:11.833Z,2.70
2018-12-02T12:12:17.369Z,2.60
2018-12-02T12:13:22.908Z,3.10
2018-12-02T12:14:28.439Z,2.70
2018-12-02T12:15:33.974Z,2.80
2018-12-02T12:16:39.511Z,3.00
2018-12-02T12:17:45.047Z,2.20
2018-12-02T12:18:50.581Z,2.50
2018-12-02T12:19:56.116Z,2.80
2018-12-02T12:21:01.652Z,2.60
2018-12-02T12:22:07.182Z,2.40
2018-12-02T12:23:12.721Z,2.20
2018-12-02T12:24:18.262Z,2.30
2018-12-02T12:25:23.793Z,2.50
2018-12-02T12:26:29.328Z,2.60
2018-12-02T12:27:34.865Z,2.30
2018-12-02T12:28:40.397Z,2.30
2018-12-02T12:29:45.933Z,2.30
2018-12-02T12:30:51.469Z,3.20
2018-12-02T12:31:57.006Z,2.50
2018-12-02T12:33:02.542Z,2.50
2018-12-02T12:34:08.072Z,3.00
2018-12-02T12:35:13.609Z,2.60
2018-12-02T12:36:19.143Z,2.70
2018-12-02T12:37:24.680Z,2.40
2018-12-02T12:38:30.213Z,2.50
2018-12-02T12:39:35.748Z,2.30
2018-12-02T12:40:41.284Z,2.50
2018-12-02T12:41:46.824Z,2.10
2018-12-02T12:42:52.357Z,2.30
2018-12-02T12:43:57.889Z,2.60
2018-12-02T12:45:03.428Z,2.40
2018-12-02T12:46:08.964Z,2.20
2018-12-02T12:47:14.492Z,2.60
2018-12-02T12:48:20.029Z,2.60
2018-12-02T12:49:25.566Z,2.60
2018-12-02T12:50:31.104Z,2.40
2018-12-02T12:51:39.812Z,1.90
2018-12-02T12:52:42.176Z,2.10
2018-12-02T12:53:47.708Z,2.20
2018-12-02T12:54:53.242Z,2.40
2018-12-02T12:55:58.785Z,2.20
2018-12-02T12:57:04.320Z,2.50
2018-12-02T12:58:09.856Z,2.40
2018-12-02T12:59:15.383Z,2.70
2018-12-02T13:00:20.921Z,2.30
2018-12-02T13:01:26.456Z,2.30
2018-12-02T13:02:31.991Z,2.80
2018-12-02T13:03:37.531Z,2.70
2018-12-02T13:04:43.065Z,2.40
2018-12-02T13:05:48.598Z,2.50
2018-12-02T13:06:54.138Z,2.60
2018-12-02T13:07:59.669Z,2.40
2018-12-02T13:09:05.205Z,2.70
2018-12-02T13:10:10.737Z,3.00
2018-12-02T13:11:16.275Z,2.50
2018-12-02T13:12:21.816Z,3.10
2018-12-02T13:13:27.350Z,2.60
2018-12-02T13:14:32.879Z,2.30
2018-12-02T13:15:38.415Z,2.40
2018-12-02T13:16:43.956Z,2.90
2018-12-02T13:17:49.487Z,2.30
2018-12-02T13:18:55.026Z,2.40
2018-12-02T13:20:00.554Z,2.30
2018-12-02T13:21:06.095Z,2.40
2018-12-02T13:22:11.628Z,2.60
2018-12-02T13:23:17.165Z,2.40
2018-12-02T13:24:22.723Z,2.40
2018-12-02T13:25:28.232Z,2.70
2018-12-02T13:26:33.770Z,2.70
2018-12-02T13:27:39.313Z,2.40
2018-12-02T13:28:44.839Z,2.90
2018-12-02T13:29:50.379Z,2.90
2018-12-02T13:30:55.914Z,2.10
2018-12-02T13:32:01.450Z,2.50
2018-12-02T13:33:06.985Z,2.60
2018-12-02T13:34:12.528Z,2.50
2018-12-02T13:35:18.053Z,2.40
2018-12-02T13:36:23.591Z,2.70
2018-12-02T13:37:29.127Z,2.60
2018-12-02T13:38:34.658Z,2.40
2018-12-02T13:39:40.195Z,2.60
2018-12-02T13:40:45.734Z,2.70
2018-12-02T13:41:51.264Z,2.60
2018-12-02T13:42:56.804Z,3.00
2018-12-02T13:44:02.335Z,2.60
2018-12-02T13:45:07.871Z,2.50
2018-12-02T13:46:13.436Z,2.50
2018-12-02T13:47:18.942Z,2.50
2018-12-02T13:48:24.482Z,2.40
2018-12-02T13:49:30.017Z,2.70
2018-12-02T13:50:35.547Z,2.70
2018-12-02T13:51:41.083Z,2.80
2018-12-02T13:52:46.621Z,2.50
2018-12-02T13:53:52.153Z,3.00
2018-12-02T13:54:57.696Z,2.50
2018-12-02T13:56:03.227Z,2.50
2018-12-02T13:57:08.761Z,2.60
2018-12-02T13:58:14.296Z,2.50
2018-12-02T13:59:19.832Z,2.30
2018-12-02T14:00:25.376Z,2.70
2018-12-02T14:01:30.917Z,2.50
2018-12-02T14:02:36.445Z,2.90
2018-12-02T14:03:41.979Z,2.50
2018-12-02T14:04:47.516Z,2.80
2018-12-02T14:05:53.047Z,2.80
2018-12-02T14:06:58.593Z,2.50
2018-12-02T14:08:04.122Z,2.10
2018-12-02T14:09:09.657Z,2.80
2018-12-02T14:10:15.820Z,3.00
2018-12-02T14:11:20.721Z,2.70
2018-12-02T14:12:26.265Z,3.40
2018-12-02T14:13:31.794Z,2.50
2018-12-02T14:14:37.333Z,3.00
2018-12-02T14:15:42.863Z,2.30
2018-12-02T14:16:48.400Z,2.30
2018-12-02T14:17:53.944Z,3.00
2018-12-02T14:20:31.066Z,2.70
2018-12-02T14:21:36.589Z,2.70
2018-12-02T14:23:35.009Z,2.90
2018-12-02T14:24:40.528Z,3.10
2018-12-02T14:26:38.941Z,3.50
2018-12-02T14:27:44.472Z,3.10
2018-12-02T14:29:42.895Z,2.60
2018-12-02T14:30:48.417Z,2.20
2018-12-02T14:32:47.671Z,2.40
2018-12-02T14:33:53.207Z,2.20
2018-12-02T14:34:58.742Z,2.20
2018-12-02T14:36:04.274Z,2.30
2018-12-02T14:37:09.813Z,1.90